Time;durP1;ratioP1;P1;durP2;ratioP2;P2;SDS_P1;SDS_P2;PMS_P1;PMS_P2;Temp;Humidity;BMP_temperature;BMP_pressure;BME280_temperature;BME280_humidity;BME280_pressure;Samples;Min_cycle;Max_cycle;Signal;HPM_P1;HPM_P2
2021/06/10 06:46:45;;;;;;;10.65;9.45;;;;;;;18.80;71.87;99609.44;1763628;79;21466;-82
2021/06/10 06:49:11;;;;;;;9.98;9.08;;;;;;;18.90;71.85;99608.59;1772067;78;21473;-80
2021/06/10 06:51:39;;;;;;;12.23;10.32;;;;;;;19.00;71.31;99609.08;1748364;79;20995;-80
2021/06/10 06:54:05;;;;;;;10.70;9.60;;;;;;;19.08;70.90;99605.44;1743945;80;21845;-79
2021/06/10 06:56:32;;;;;;;11.57;8.93;;;;;;;19.19;70.98;99600.88;1767010;80;21106;-79
2021/06/10 06:58:59;;;;;;;12.35;10.45;;;;;;;19.33;70.33;99598.61;1759368;80;21483;-73
2021/06/10 07:01:25;;;;;;;11.68;9.00;;;;;;;19.42;70.06;99604.12;1757279;79;21020;-73
2021/06/10 07:03:52;;;;;;;10.68;9.45;;;;;;;19.51;69.60;99597.27;1748881;80;21414;-73
2021/06/10 07:06:18;;;;;;;10.50;9.45;;;;;;;19.55;69.44;99599.84;1756241;80;21867;-73
2021/06/10 07:08:47;;;;;;;9.93;9.03;;;;;;;19.64;69.31;99596.01;1737537;79;20929;-74
2021/06/10 07:11:14;;;;;;;9.95;8.98;;;;;;;19.73;68.98;99598.83;1754777;79;21001;-76
2021/06/10 07:13:42;;;;;;;8.78;7.87;;;;;;;19.89;69.03;99590.97;1758891;79;21406;-77
2021/06/10 07:16:09;;;;;;;8.73;7.85;;;;;;;20.02;68.07;99585.64;1739605;82;20977;-76
2021/06/10 07:18:35;;;;;;;9.63;8.55;;;;;;;20.13;67.54;99592.26;1745844;80;22635;-76
2021/06/10 07:21:02;;;;;;;9.08;8.18;;;;;;;20.26;67.44;99592.28;1740782;78;20916;-79
2021/06/10 07:23:28;;;;;;;10.28;8.33;;;;;;;20.37;67.01;99592.22;1751011;80;21083;-76
2021/06/10 07:25:56;;;;;;;11.53;8.75;;;;;;;20.52;66.51;99589.67;1722161;81;21107;-79
2021/06/10 07:28:23;;;;;;;8.30;7.50;;;;;;;20.67;66.08;99590.83;1740195;79;21012;-78
2021/06/10 07:30:50;;;;;;;7.92;7.20;;;;;;;20.77;65.28;99583.70;1749736;80;22617;-75
2021/06/10 07:33:16;;;;;;;12.45;7.50;;;;;;;20.84;64.54;99584.02;1761794;79;21011;-77
2021/06/10 07:35:43;;;;;;;10.78;7.40;;;;;;;20.92;64.42;99593.69;1756063;79;21015;-76
2021/06/10 07:38:10;;;;;;;13.18;7.92;;;;;;;20.99;64.71;99593.17;1730139;79;21039;-75
2021/06/10 07:40:38;;;;;;;8.55;7.37;;;;;;;21.05;64.00;99588.84;1739671;82;21013;-79
2021/06/10 07:43:04;;;;;;;7.33;6.45;;;;;;;21.02;63.49;99588.72;1747655;82;22506;-76
2021/06/10 07:45:31;;;;;;;11.38;7.40;;;;;;;21.00;62.73;99596.16;1751705;80;21031;-77
2021/06/10 07:47:58;;;;;;;8.03;7.22;;;;;;;21.05;63.51;99584.30;1750962;79;20960;-74
2021/06/10 07:50:24;;;;;;;11.70;6.83;;;;;;;21.20;63.50;99583.23;1749140;79;20941;-77
2021/06/10 07:52:51;;;;;;;12.75;7.28;;;;;;;21.40;63.31;99592.09;1749392;78;21084;-76
2021/06/10 07:55:22;;;;;;;8.48;7.67;;;;;;;21.61;63.33;99590.47;1756354;79;21812;-76
2021/06/10 07:57:49;;;;;;;8.50;6.60;;;;;;;21.77;62.66;99588.34;1745342;80;21052;-75
2021/06/10 08:00:17;;;;;;;6.50;5.65;;;;;;;21.83;62.06;99585.64;1764547;79;21440;-76
2021/06/10 08:02:43;;;;;;;6.55;5.70;;;;;;;21.97;60.42;99591.77;1770905;79;21745;-76
2021/06/10 08:05:11;;;;;;;7.10;6.08;;;;;;;21.81;59.59;99587.72;1753260;80;21490;-77
2021/06/10 08:07:42;;;;;;;7.00;5.75;;;;;;;21.65;59.62;99594.39;1696127;81;21840;-77
2021/06/10 08:10:11;;;;;;;5.35;4.42;;;;;;;21.54;59.99;99596.92;1716848;81;21331;-76
2021/06/10 08:12:39;;;;;;;5.97;5.40;;;;;;;21.61;60.49;99590.47;1733615;81;20960;-76
2021/06/10 08:15:07;;;;;;;43.40;31.20;;;;;;;21.68;59.59;99575.14;1730941;80;21009;-76
2021/06/10 08:17:35;;;;;;;93.12;64.90;;;;;;;21.73;59.58;99579.08;1742606;80;20928;-76
2021/06/10 08:20:05;;;;;;;12.50;10.25;;;;;;;21.87;59.06;99576.09;1765401;79;22440;-77
2021/06/10 08:22:31;;;;;;;217.82;195.92;;;;;;;22.06;59.74;99575.69;1726071;80;21069;-76
2021/06/10 08:24:59;;;;;;;121.62;70.57;;;;;;;22.21;59.09;99581.64;1706671;83;21126;-76
2021/06/10 08:27:26;;;;;;;76.50;44.13;;;;;;;22.44;57.63;99577.55;1718690;81;21414;-76
2021/06/10 08:29:52;;;;;;;25.37;20.82;;;;;;;22.72;56.50;99575.25;1688538;83;21503;-76
2021/06/10 08:32:18;;;;;;;20.20;10.65;;;;;;;22.83;57.05;99573.19;1727961;81;22468;-76
2021/06/10 08:34:45;;;;;;;13.20;9.03;;;;;;;22.95;57.38;99576.52;1722989;81;21489;-77
2021/06/10 08:37:11;;;;;;;36.10;28.80;;;;;;;23.10;56.94;99577.84;1745052;79;21490;-76
2021/06/10 08:39:38;;;;;;;45.30;39.33;;;;;;;23.25;54.91;99571.25;1725546;81;21348;-76
2021/06/10 08:42:07;;;;;;;22.75;19.27;;;;;;;23.43;54.82;99573.42;1748326;81;20975;-76
2021/06/10 08:44:35;;;;;;;43.65;35.17;;;;;;;23.44;53.59;99572.89;1718271;81;21846;-76
2021/06/10 08:47:05;;;;;;;173.70;131.20;;;;;;;23.46;52.29;99562.73;1719267;80;20984;-75
2021/06/10 08:49:32;;;;;;;25.05;19.75;;;;;;;23.30;52.67;99564.67;1730511;80;21075;-78
2021/06/10 08:51:58;;;;;;;10.30;9.25;;;;;;;23.17;53.30;99557.57;1754486;80;21040;-76
2021/06/10 08:54:25;;;;;;;22.22;16.65;;;;;;;23.11;53.74;99565.19;1739884;79;21044;-76
2021/06/10 08:56:51;;;;;;;6.72;5.85;;;;;;;23.10;54.45;99550.08;1771077;79;21730;-76
2021/06/10 08:59:18;;;;;;;20.95;18.77;;;;;;;23.17;54.83;99546.80;1764078;79;20976;-77
2021/06/10 09:01:46;;;;;;;15.03;13.43;;;;;;;23.28;53.94;99538.48;1744533;78;21056;-76
2021/06/10 09:04:13;;;;;;;8.28;5.78;;;;;;;23.52;54.29;99540.78;1735310;80;20965;-76
2021/06/10 09:06:48;;;;;;;21.25;15.55;;;;;;;23.77;52.12;99538.84;1733623;82;21099;-77
2021/06/10 09:09:22;;;;;;;26.75;18.50;;;;;;;23.78;51.24;99539.66;1726845;80;21837;-76
2021/06/10 09:11:48;;;;;;;16.17;11.38;;;;;;;23.77;50.91;99539.36;1721731;79;21062;-77
2021/06/10 09:14:15;;;;;;;37.03;16.75;;;;;;;23.78;50.17;99542.36;1764632;80;20984;-76
2021/06/10 09:16:43;;;;;;;379.85;298.13;;;;;;;23.80;50.85;99541.07;1758889;79;21106;-77
2021/06/10 09:19:13;;;;;;;100.12;73.47;;;;;;;23.91;49.26;99540.29;1702834;81;21041;-77
2021/06/10 09:21:50;;;;;;;64.92;45.55;;;;;;;23.84;44.86;99542.28;1715874;81;21818;-76
2021/06/10 09:24:29;;;;;;;76.20;60.17;;;;;;;23.69;46.93;99536.45;1736153;80;21059;-77
2021/06/10 09:27:09;;;;;;;77.80;64.47;;;;;;;23.62;48.59;99533.83;1721309;81;20980;-78
2021/06/10 09:29:51;;;;;;;77.70;64.82;;;;;;;23.67;48.63;99541.26;1746918;79;21012;-77
2021/06/10 09:32:25;;;;;;;12.20;10.28;;;;;;;23.80;49.49;99532.16;1708136;81;21068;-76
2021/06/10 09:35:01;;;;;;;44.08;39.35;;;;;;;23.89;47.95;99529.44;1706961;81;21764;-76
2021/06/10 09:37:42;;;;;;;18.50;15.98;;;;;;;23.81;48.52;99530.58;1736704;79;21113;-76
2021/06/10 09:40:15;;;;;;;28.52;25.68;;;;;;;23.73;47.97;99520.63;1762383;79;20937;-76
2021/06/10 09:42:42;;;;;;;44.70;40.00;;;;;;;23.85;47.47;99515.60;1768747;80;27093;-76
2021/06/10 09:45:13;;;;;;;45.50;39.40;;;;;;;24.14;47.22;99511.77;1750984;80;21072;-76
2021/06/10 09:47:51;;;;;;;24.37;18.98;;;;;;;24.39;45.95;99513.76;1753904;80;21805;-75
2021/06/10 09:50:31;;;;;;;30.30;24.27;;;;;;;24.42;46.76;99509.80;1761929;80;20956;-75
2021/06/10 09:53:09;;;;;;;6.90;5.80;;;;;;;24.16;50.35;99516.39;1764665;79;21487;-75
2021/06/10 09:55:46;;;;;;;6.90;6.20;;;;;;;23.92;51.55;99506.87;1777417;80;21150;-75
2021/06/10 09:58:19;;;;;;;18.07;16.12;;;;;;;23.66;52.30;99520.22;1746260;80;21048;-75
2021/06/10 10:00:51;;;;;;;9.80;7.10;;;;;;;23.32;52.84;99512.20;1727819;81;22648;-75
2021/06/10 10:03:32;;;;;;;9.38;5.60;;;;;;;23.07;53.52;99509.60;1736808;80;21035;-75
2021/06/10 10:06:03;;;;;;;7.20;6.25;;;;;;;22.92;54.49;99512.34;1765024;79;21327;-75
2021/06/10 10:08:30;;;;;;;4.85;4.45;;;;;;;22.79;55.17;99507.38;1748276;80;21208;-75
2021/06/10 10:11:00;;;;;;;9.20;6.62;;;;;;;22.68;55.54;99513.98;1770077;80;21043;-75
2021/06/10 10:13:29;;;;;;;6.12;4.75;;;;;;;22.59;56.45;99518.85;1747245;79;21822;-75
2021/06/10 10:16:03;;;;;;;5.17;4.62;;;;;;;22.58;56.70;99521.21;1735767;80;20952;-75
2021/06/10 10:18:31;;;;;;;4.80;4.30;;;;;;;22.59;56.65;99518.03;1770391;80;21019;-76
2021/06/10 10:21:01;;;;;;;5.47;4.70;;;;;;;22.61;56.33;99519.45;1741351;80;20973;-75
2021/06/10 10:23:28;;;;;;;4.87;4.47;;;;;;;22.66;56.08;99518.77;1694979;81;21444;-75
2021/06/10 10:26:00;;;;;;;7.33;6.50;;;;;;;22.76;55.42;99512.36;1708605;83;22461;-75
2021/06/10 10:28:30;;;;;;;7.58;6.62;;;;;;;22.82;55.38;99502.88;1769756;80;21177;-75
2021/06/10 10:30:57;;;;;;;6.17;5.25;;;;;;;22.88;54.73;99493.66;1743893;80;21127;-75
2021/06/10 10:33:26;;;;;;;6.50;5.15;;;;;;;22.92;54.46;99495.67;1734780;81;21146;-75
2021/06/10 10:36:03;;;;;;;6.72;5.42;;;;;;;23.01;54.36;99492.16;1730617;81;21017;-75
2021/06/10 10:38:39;;;;;;;6.53;5.25;;;;;;;23.10;53.88;99488.94;1721325;79;21836;-75
2021/06/10 10:41:11;;;;;;;5.25;4.72;;;;;;;23.19;54.35;99501.59;1729766;80;21080;-75
2021/06/10 10:43:42;;;;;;;4.40;3.80;;;;;;;23.34;54.13;99499.31;1737483;81;21429;-76
2021/06/10 10:46:18;;;;;;;4.22;3.83;;;;;;;23.47;53.02;99504.27;1737833;80;20973;-75
2021/06/10 10:48:49;;;;;;;5.25;4.10;;;;;;;23.58;52.35;99512.41;1736983;82;21107;-75
2021/06/10 10:51:36;;;;;;;113.25;73.02;;;;;;;23.61;52.02;99508.45;1732541;79;21483;-75
2021/06/10 10:54:07;;;;;;;8.60;6.78;;;;;;;23.49;50.85;99506.20;1749365;79;20985;-76
2021/06/10 10:56:39;;;;;;;335.27;286.50;;;;;;;23.42;51.24;99513.84;1761225;79;20987;-76
2021/06/10 10:59:17;;;;;;;56.85;43.15;;;;;;;23.43;51.88;99515.48;1751619;80;20972;-75
2021/06/10 11:02:05;;;;;;;149.42;109.10;;;;;;;23.48;50.63;99516.69;1751560;79;20980;-75
2021/06/10 11:05:00;;;;;;;61.40;49.20;;;;;;;23.54;50.49;99507.67;1757373;79;21827;-75
2021/06/10 11:07:41;;;;;;;409.35;270.52;;;;;;;23.62;49.21;99501.48;1753710;80;20964;-75
2021/06/10 11:10:19;;;;;;;201.27;108.45;;;;;;;23.66;48.88;99508.61;1763985;79;21107;-75
2021/06/10 11:12:51;;;;;;;231.15;83.80;;;;;;;23.68;49.08;99503.28;1708975;83;20988;-75
2021/06/10 11:15:25;;;;;;;1226.38;804.83;;;;;;;23.67;48.33;99494.08;1708319;83;21190;-74
2021/06/10 11:17:57;;;;;;;760.92;529.42;;;;;;;23.67;47.84;99500.81;1699416;82;22856;-75
2021/06/10 11:20:40;;;;;;;126.10;79.43;;;;;;;23.68;50.97;99498.41;1740905;80;20968;-74
2021/06/10 11:23:25;;;;;;;21.52;13.10;;;;;;;23.69;52.75;99492.79;1744871;80;21020;-75
2021/06/10 11:25:53;;;;;;;7.85;6.42;;;;;;;23.69;52.83;99498.70;1766940;80;21039;-75
2021/06/10 11:28:23;;;;;;;6.83;5.17;;;;;;;23.67;53.10;99497.59;1757977;80;21019;-75
2021/06/10 11:30:53;;;;;;;8.83;5.50;;;;;;;23.68;53.46;99501.93;1748228;79;21824;-75
2021/06/10 11:33:25;;;;;;;5.65;4.65;;;;;;;23.69;53.67;99503.58;1710604;81;21428;-77
2021/06/10 11:36:04;;;;;;;5.75;4.95;;;;;;;23.56;53.60;99514.52;1727179;81;21136;-75
2021/06/10 11:38:48;;;;;;;7.40;4.47;;;;;;;23.45;53.67;99519.81;1760459;80;21040;-75
2021/06/10 11:41:19;;;;;;;6.53;4.70;;;;;;;23.27;53.89;99520.16;1741603;79;21139;-75
2021/06/10 11:43:57;;;;;;;5.37;4.80;;;;;;;23.12;54.29;99520.52;1727290;82;22504;-75
2021/06/10 11:46:34;;;;;;;5.03;4.50;;;;;;;22.99;54.84;99517.16;1762161;80;20933;-74
2021/06/10 11:49:01;;;;;;;5.45;4.58;;;;;;;22.93;55.13;99531.50;1776966;80;21027;-76
2021/06/10 11:51:33;;;;;;;6.45;4.60;;;;;;;22.89;54.92;99530.30;1747824;79;21070;-75
2021/06/10 11:54:13;;;;;;;5.65;5.10;;;;;;;22.79;55.48;99534.30;1752730;79;20961;-74
2021/06/10 11:56:42;;;;;;;6.55;4.70;;;;;;;22.74;55.70;99539.51;1753602;79;21831;-76
2021/06/10 11:59:24;;;;;;;5.03;4.22;;;;;;;22.70;55.64;99524.86;1746254;79;21032;-75
2021/06/10 12:02:07;;;;;;;5.33;4.25;;;;;;;22.66;55.33;99525.50;1752548;79;21015;-76
2021/06/10 12:04:35;;;;;;;5.60;5.10;;;;;;;22.59;55.44;99520.72;1772310;79;21150;-74
2021/06/10 12:07:10;;;;;;;5.90;4.85;;;;;;;22.60;55.97;99518.33;1750678;79;21079;-75
2021/06/10 12:09:56;;;;;;;5.92;4.00;;;;;;;22.64;55.80;99516.83;1751066;80;21856;-74
2021/06/10 12:12:41;;;;;;;5.17;4.20;;;;;;;22.70;55.83;99519.99;1759013;80;21024;-77
2021/06/10 12:15:29;;;;;;;4.65;3.70;;;;;;;22.74;55.51;99519.31;1761659;79;20980;-75
2021/06/10 12:18:04;;;;;;;4.87;3.70;;;;;;;22.83;55.64;99502.36;1778837;79;21109;-75
2021/06/10 12:20:34;;;;;;;4.47;4.08;;;;;;;22.90;55.04;99487.00;1740705;79;20964;-74
2021/06/10 12:23:03;;;;;;;4.53;3.87;;;;;;;22.88;54.92;99484.23;1742167;80;22478;-74
2021/06/10 12:25:32;;;;;;;4.17;3.87;;;;;;;22.86;54.50;99481.73;1736833;80;20972;-75
2021/06/10 12:28:00;;;;;;;4.35;3.95;;;;;;;22.89;55.00;99479.14;1759897;79;21571;-74
2021/06/10 12:30:39;;;;;;;4.62;3.75;;;;;;;22.92;55.14;99477.34;1738318;80;20980;-75
2021/06/10 12:33:20;;;;;;;4.80;4.33;;;;;;;23.05;55.25;99475.31;1755501;80;20937;-72
2021/06/10 12:35:49;;;;;;;4.30;3.90;;;;;;;23.28;55.01;99474.64;1756046;80;22467;-75
2021/06/10 12:38:19;;;;;;;4.87;3.42;;;;;;;23.51;54.17;99485.23;1760084;79;21028;-77
2021/06/10 12:40:47;;;;;;;3.12;2.83;;;;;;;23.54;52.86;99475.33;1730287;81;21010;-78
2021/06/10 12:43:23;;;;;;;2.90;2.45;;;;;;;23.27;52.59;99479.73;1730474;81;20993;-75
2021/06/10 12:46:02;;;;;;;3.33;2.25;;;;;;;22.94;52.80;99478.75;1719635;82;21058;-74
2021/06/10 12:48:30;;;;;;;3.80;2.10;;;;;;;22.71;53.08;99492.84;1756562;80;21767;-70
2021/06/10 12:51:26;;;;;;;3.33;2.17;;;;;;;22.50;53.63;99504.84;1724025;82;21070;-73
2021/06/10 12:54:17;;;;;;;3.55;1.90;;;;;;;22.24;53.59;99505.87;1707626;82;20965;-73
2021/06/10 12:56:52;;;;;;;2.70;1.70;;;;;;;21.97;52.70;99507.89;1737711;81;20972;-75
2021/06/10 12:59:37;;;;;;;3.47;1.65;;;;;;;21.97;54.15;99513.27;1753908;79;20971;-78
2021/06/10 13:02:19;;;;;;;12.68;3.12;;;;;;;22.10;54.17;99520.97;1759474;80;21833;-76
2021/06/10 13:04:58;;;;;;;42.98;4.20;;;;;;;22.19;54.57;99546.04;1766326;80;20969;-77
2021/06/10 13:07:36;;;;;;;14.03;3.00;;;;;;;22.39;53.61;99534.31;1746140;80;21122;-74
2021/06/10 13:10:37;;;;;;;42.40;5.58;;;;;;;22.60;53.35;99539.86;1746800;79;21008;-77
2021/06/10 13:13:05;;;;;;;12.15;2.12;;;;;;;22.69;52.61;99542.58;1711336;81;21097;-79
2021/06/10 13:15:41;;;;;;;2.70;1.50;;;;;;;22.78;53.17;99550.16;1749352;79;21806;-76
2021/06/10 13:18:12;;;;;;;7.53;1.62;;;;;;;22.97;52.17;99532.69;1740667;80;21409;-77
2021/06/10 13:21:05;;;;;;;1.62;1.20;;;;;;;23.04;50.93;99537.48;1766581;80;21025;-77
2021/06/10 13:23:39;;;;;;;1.50;1.32;;;;;;;23.00;48.62;99545.20;1744971;79;21209;-79
2021/06/10 13:26:20;;;;;;;4.03;1.50;;;;;;;22.68;48.08;99555.70;1768863;79;20973;-79
2021/06/10 13:28:58;;;;;;;3.77;1.40;;;;;;;22.40;49.62;99558.86;1753370;79;21777;-76
2021/06/10 13:31:30;;;;;;;4.25;1.35;;;;;;;22.05;50.29;99560.59;1735980;80;21058;-77
2021/06/10 13:34:04;;;;;;;2.45;1.40;;;;;;;21.79;51.19;99559.39;1746100;80;21383;-74
2021/06/10 13:36:32;;;;;;;4.78;1.72;;;;;;;21.51;52.02;99569.94;1763991;78;21206;-76
2021/06/10 13:39:05;;;;;;;3.27;1.72;;;;;;;21.24;52.69;99569.70;1745821;80;21557;-73
2021/06/10 13:41:32;;;;;;;2.35;1.47;;;;;;;21.07;53.57;99566.63;1731716;81;22462;-73
2021/06/10 13:43:59;;;;;;;1.95;1.47;;;;;;;20.89;53.97;99559.74;1699240;82;21004;-76
2021/06/10 13:46:25;;;;;;;2.30;1.40;;;;;;;20.66;54.66;99558.32;1744927;79;20964;-74
2021/06/10 13:48:52;;;;;;;2.02;1.70;;;;;;;20.55;55.09;99561.59;1771000;80;21039;-77
2021/06/10 13:51:20;;;;;;;1.82;1.52;;;;;;;20.36;55.81;99568.56;1757084;80;21013;-74
2021/06/10 13:53:47;;;;;;;3.47;1.65;;;;;;;20.21;56.23;99561.24;1754835;80;21830;-71
2021/06/10 13:56:15;;;;;;;1.77;1.50;;;;;;;20.19;56.53;99565.98;1752601;79;20981;-72
2021/06/10 13:58:41;;;;;;;210.35;16.23;;;;;;;20.20;56.51;99561.76;1745775;79;21032;-75
2021/06/10 14:01:08;;;;;;;73.35;7.37;;;;;;;20.24;56.65;99557.63;1753207;80;21043;-71
2021/06/10 14:03:34;;;;;;;4.42;2.12;;;;;;;20.21;56.81;99566.09;1760753;79;21024;-71
2021/06/10 14:06:01;;;;;;;29.52;3.67;;;;;;;20.25;56.94;99569.17;1749358;78;22667;-72
2021/06/10 14:08:28;;;;;;;9.93;2.20;;;;;;;20.17;57.28;99574.72;1739489;80;21383;-72
2021/06/10 14:10:54;;;;;;;11.68;2.10;;;;;;;20.08;57.57;99578.14;1749934;79;21045;-71
2021/06/10 14:13:21;;;;;;;2.33;1.60;;;;;;;20.05;57.73;99586.56;1755803;79;20973;-72
2021/06/10 14:15:48;;;;;;;3.77;1.77;;;;;;;20.04;57.42;99586.77;1773187;79;20916;-69
2021/06/10 14:18:15;;;;;;;1.95;1.70;;;;;;;19.97;57.45;99582.20;1745747;80;21837;-73
2021/06/10 14:20:41;;;;;;;2.65;1.70;;;;;;;19.95;57.69;99581.59;1753723;79;21055;-72
2021/06/10 14:23:08;;;;;;;3.42;1.75;;;;;;;19.97;57.83;99573.34;1738473;79;21480;-74
2021/06/10 14:25:36;;;;;;;18.65;3.12;;;;;;;19.99;57.97;99576.67;1744780;80;21171;-70
2021/06/10 14:28:04;;;;;;;106.83;10.72;;;;;;;19.97;57.83;99572.83;1755330;79;20983;-76
2021/06/10 14:32:59;;;;;;;55.88;5.85;;;;;;;19.95;58.00;99567.36;1743539;80;21150;-69
2021/06/10 14:35:26;;;;;;;9.00;2.90;;;;;;;19.96;58.15;99563.65;1787923;79;21581;-74
2021/06/10 14:37:52;;;;;;;3.17;2.05;;;;;;;19.98;58.29;99560.28;1742095;78;21097;-74
2021/06/10 14:40:19;;;;;;;3.75;1.85;;;;;;;19.97;58.22;99560.77;1753709;79;21022;-74
2021/06/10 14:42:46;;;;;;;3.12;1.90;;;;;;;19.95;58.36;99553.44;1760226;79;21833;-74
2021/06/10 14:45:13;;;;;;;2.50;1.82;;;;;;;19.94;58.37;99541.08;1755533;79;21456;-77
2021/06/10 14:47:43;;;;;;;4.12;1.85;;;;;;;20.00;58.47;99539.45;1765652;79;20991;-77
2021/06/10 14:50:10;;;;;;;3.35;1.90;;;;;;;20.03;58.60;99540.38;1737794;80;20924;-75
2021/06/10 14:52:36;;;;;;;3.45;1.80;;;;;;;20.05;58.61;99535.63;1725637;82;20881;-74
2021/06/10 14:55:06;;;;;;;5.05;1.98;;;;;;;20.08;58.77;99534.42;1706684;81;22236;-77
2021/06/10 14:57:32;;;;;;;3.60;1.85;;;;;;;20.16;58.98;99526.98;1775350;78;21086;-79
2021/06/10 14:59:58;;;;;;;12.78;2.30;;;;;;;20.27;59.09;99528.26;1758627;79;21023;-79
2021/06/10 15:02:25;;;;;;;4.92;1.82;;;;;;;20.39;58.98;99521.76;1765750;79;21019;-84
2021/06/10 15:04:52;;;;;;;10.80;2.30;;;;;;;20.49;58.58;99518.18;1762959;78;21407;-78
2021/06/10 15:07:19;;;;;;;25.08;3.92;;;;;;;20.58;58.33;99505.69;1747303;79;21814;-80
2021/06/10 15:09:46;;;;;;;7.70;2.47;;;;;;;20.68;58.12;99511.97;1759092;80;21008;-78
2021/06/10 15:12:13;;;;;;;4.35;2.02;;;;;;;20.75;57.89;99507.92;1737564;80;21000;-78
2021/06/10 15:14:40;;;;;;;17.07;3.00;;;;;;;20.82;57.89;99510.08;1744658;79;21071;-78
2021/06/10 15:17:06;;;;;;;5.53;2.37;;;;;;;20.95;57.66;99516.79;1759680;79;21020;-78
2021/06/10 15:19:32;;;;;;;3.00;2.05;;;;;;;21.04;56.95;99514.19;1744590;80;21868;-76
2021/06/10 15:21:59;;;;;;;3.08;2.25;;;;;;;21.04;56.33;99508.00;1752487;79;20972;-76
2021/06/10 15:24:25;;;;;;;7.58;2.47;;;;;;;21.04;56.30;99503.97;1722742;80;21003;-76
2021/06/10 15:26:52;;;;;;;3.58;2.05;;;;;;;21.08;56.33;99501.16;1750034;79;21316;-79
2021/06/10 15:29:18;;;;;;;2.62;2.00;;;;;;;21.13;56.17;99506.21;1756811;80;20948;-76
2021/06/10 15:31:45;;;;;;;4.30;2.67;;;;;;;21.14;56.37;99509.20;1762799;79;21773;-75
2021/06/10 15:34:11;;;;;;;6.03;3.70;;;;;;;21.11;58.10;99517.66;1755465;80;21071;-72
2021/06/10 15:36:38;;;;;;;9.33;3.70;;;;;;;20.92;59.95;99517.70;1745860;80;21016;-71
2021/06/10 15:39:04;;;;;;;11.95;4.58;;;;;;;20.64;61.32;99517.43;1744987;79;21467;-74
2021/06/10 15:41:31;;;;;;;10.80;5.35;;;;;;;20.46;62.08;99522.11;1759161;80;20900;-73
2021/06/10 15:43:57;;;;;;;8.20;6.00;;;;;;;20.32;62.44;99524.43;1744878;79;21803;-74
2021/06/10 15:46:24;;;;;;;9.20;5.87;;;;;;;20.27;62.89;99526.91;1703239;81;20985;-75
2021/06/10 15:48:50;;;;;;;6.78;4.85;;;;;;;20.28;63.20;99525.88;1769228;79;20928;-73
2021/06/10 15:51:18;;;;;;;7.30;4.62;;;;;;;20.35;63.24;99529.89;1772534;79;21047;-76
2021/06/10 15:53:44;;;;;;;14.63;4.65;;;;;;;20.40;63.25;99533.62;1727029;80;21490;-75
2021/06/10 15:56:11;;;;;;;8.90;4.10;;;;;;;20.45;63.29;99535.18;1754719;80;21762;-73
2021/06/10 15:58:38;;;;;;;10.85;3.92;;;;;;;20.51;63.22;99534.89;1758213;80;21043;-72
2021/06/10 16:01:04;;;;;;;6.22;3.62;;;;;;;20.55;63.11;99538.27;1759567;79;21023;-76
2021/06/10 16:03:31;;;;;;;6.65;3.70;;;;;;;20.60;63.14;99532.30;1768454;79;20980;-73
2021/06/10 16:05:57;;;;;;;7.65;3.72;;;;;;;20.64;63.12;99528.68;1753126;79;21527;-79
2021/06/10 16:08:24;;;;;;;7.17;3.27;;;;;;;20.62;63.06;99528.89;1729086;81;22610;-79
2021/06/10 16:10:51;;;;;;;4.65;3.20;;;;;;;20.64;63.08;99526.82;1737917;82;21067;-76
2021/06/10 16:13:19;;;;;;;4.05;3.30;;;;;;;20.62;63.20;99524.05;1749301;79;20973;-76
2021/06/10 16:15:45;;;;;;;11.38;3.67;;;;;;;20.58;63.22;99524.47;1766205;80;20948;-79
2021/06/10 16:18:12;;;;;;;8.75;3.90;;;;;;;20.60;63.33;99520.23;1743801;79;21025;-77
2021/06/10 16:20:38;;;;;;;4.05;3.22;;;;;;;20.61;63.29;99516.52;1759569;80;21835;-76
2021/06/10 16:23:05;;;;;;;5.35;3.25;;;;;;;20.67;63.36;99512.19;1765257;80;20983;-75
2021/06/10 16:25:31;;;;;;;5.45;3.27;;;;;;;20.70;63.37;99509.90;1736015;80;21162;-75
2021/06/10 16:27:58;;;;;;;6.40;3.33;;;;;;;20.70;63.44;99504.53;1762932;80;21091;-76
2021/06/10 16:30:25;;;;;;;6.60;3.45;;;;;;;20.72;63.54;99505.66;1767081;79;21137;-75
2021/06/10 16:32:52;;;;;;;7.28;4.42;;;;;;;20.71;63.58;99506.18;1751967;79;22475;-76
2021/06/10 16:35:23;;;;;;;8.40;4.08;;;;;;;20.72;63.68;99505.66;1727960;82;21055;-74
2021/06/10 16:37:48;;;;;;;5.35;4.00;;;;;;;20.70;63.82;99503.19;1751677;80;20973;-74
2021/06/10 16:40:15;;;;;;;4.78;3.60;;;;;;;20.67;63.99;99508.16;1759392;77;20972;-75
2021/06/10 16:42:42;;;;;;;4.80;3.60;;;;;;;20.59;64.18;99510.53;1754749;80;21083;-78
2021/06/10 16:45:10;;;;;;;9.00;3.75;;;;;;;20.64;64.29;99512.58;1732723;80;21811;-76
2021/06/10 16:47:36;;;;;;;10.20;4.00;;;;;;;20.76;64.17;99509.59;1759260;79;20916;-75
2021/06/10 16:50:04;;;;;;;12.43;4.08;;;;;;;20.85;64.06;99516.40;1774631;80;20975;-75
2021/06/10 16:52:32;;;;;;;5.00;3.92;;;;;;;20.94;63.88;99516.97;1740341;80;21093;-74
2021/06/10 16:54:59;;;;;;;10.72;4.53;;;;;;;21.01;63.75;99517.27;1690288;83;21075;-76
2021/06/10 16:57:25;;;;;;;4.37;3.90;;;;;;;21.12;63.54;99517.14;1751161;80;21812;-77
2021/06/10 17:00:04;;;;;;;6.83;4.45;;;;;;;21.29;63.31;99513.51;1770310;80;21019;-75
2021/06/10 17:03:59;;;;;;;6.72;4.28;;;;;;;21.41;63.00;99509.94;1760831;80;21075;-75
2021/06/10 17:04:53;;;;;;;8.73;6.62;;;;;;;21.35;62.91;99512.67;1759024;79;21526;-77
2021/06/10 17:07:19;;;;;;;17.37;9.58;;;;;;;21.22;63.22;99516.70;1736813;79;21558;-76
2021/06/10 17:09:45;;;;;;;22.93;12.15;;;;;;;20.98;63.64;99512.33;1696275;81;22483;-75
2021/06/10 17:12:13;;;;;;;22.00;12.88;;;;;;;20.72;64.24;99511.85;1681246;84;20953;-75
2021/06/10 17:14:39;;;;;;;17.60;9.55;;;;;;;20.52;64.75;99514.55;1725153;82;20965;-75
2021/06/10 17:17:09;;;;;;;16.20;7.55;;;;;;;20.37;65.24;99515.78;1750894;79;20976;-75
2021/06/10 17:19:34;;;;;;;22.05;11.65;;;;;;;20.23;65.64;99513.59;1722876;82;21452;-75
2021/06/10 17:22:00;;;;;;;6.58;5.80;;;;;;;20.10;66.07;99519.77;1731525;81;21839;-75
2021/06/10 17:24:27;;;;;;;9.13;5.58;;;;;;;19.95;66.56;99521.28;1744666;79;21175;-75
2021/06/10 17:26:57;;;;;;;7.12;5.67;;;;;;;19.85;66.92;99518.17;1762970;80;21079;-74
2021/06/10 17:29:22;;;;;;;7.62;6.83;;;;;;;19.74;67.26;99514.74;1761553;79;21058;-75
2021/06/10 17:31:49;;;;;;;7.45;6.47;;;;;;;19.67;67.70;99509.88;1755459;80;21414;-75
2021/06/10 17:34:15;;;;;;;14.58;6.90;;;;;;;19.60;68.05;99517.08;1768384;80;21796;-74
2021/06/10 17:36:42;;;;;;;7.80;6.42;;;;;;;19.48;68.34;99507.92;1748972;81;20999;-73
2021/06/10 17:39:08;;;;;;;7.17;6.05;;;;;;;19.43;68.68;99514.71;1745432;81;20999;-74
2021/06/10 17:41:35;;;;;;;10.65;6.40;;;;;;;19.38;68.85;99516.33;1748953;80;21063;-74
2021/06/10 17:44:01;;;;;;;9.50;6.40;;;;;;;19.34;68.97;99520.44;1763718;80;21457;-74
2021/06/10 17:46:28;;;;;;;6.67;6.00;;;;;;;19.33;69.24;99527.65;1748640;79;21818;-73
2021/06/10 17:48:55;;;;;;;7.03;6.00;;;;;;;19.28;69.42;99535.95;1726655;81;21043;-83
2021/06/10 17:51:21;;;;;;;6.58;5.85;;;;;;;19.22;69.59;99536.25;1719845;81;21606;-78
2021/06/10 17:53:50;;;;;;;6.83;5.28;;;;;;;19.19;69.90;99535.28;1733333;81;21392;-76
2021/06/10 17:56:17;;;;;;;6.58;5.97;;;;;;;19.11;70.07;99538.97;1685650;84;20965;-76
2021/06/10 17:58:44;;;;;;;6.40;5.80;;;;;;;19.07;70.19;99550.25;1676786;83;21797;-78
2021/06/10 18:01:10;;;;;;;8.53;5.92;;;;;;;19.04;70.30;99546.13;1695017;82;21059;-77
2021/06/10 18:03:37;;;;;;;8.83;6.08;;;;;;;19.03;70.39;99553.02;1742428;80;21569;-77
2021/06/10 18:06:04;;;;;;;7.37;5.58;;;;;;;18.98;70.44;99544.73;1771042;79;21182;-77
2021/06/10 18:08:30;;;;;;;6.60;5.90;;;;;;;18.94;70.42;99542.16;1749133;79;21576;-76
2021/06/10 18:10:57;;;;;;;5.97;5.37;;;;;;;18.91;70.51;99547.88;1759125;80;21723;-77
2021/06/10 18:13:24;;;;;;;7.22;6.00;;;;;;;18.86;70.46;99554.66;1763904;79;20948;-76
2021/06/10 18:15:54;;;;;;;5.95;5.22;;;;;;;18.82;70.39;99561.42;1743271;79;21112;-78
2021/06/10 18:18:20;;;;;;;6.62;5.30;;;;;;;18.81;70.32;99561.08;1748743;78;21107;-77
2021/06/10 18:20:48;;;;;;;5.75;5.17;;;;;;;18.82;70.27;99561.94;1695985;83;21108;-78
2021/06/10 18:23:14;;;;;;;5.87;5.28;;;;;;;18.78;70.26;99575.38;1741521;79;21827;-78
2021/06/10 18:25:41;;;;;;;5.42;4.90;;;;;;;18.75;70.30;99581.13;1760204;79;21023;-78
2021/06/10 18:28:07;;;;;;;5.60;5.10;;;;;;;18.70;70.27;99580.34;1753421;79;20984;-79
2021/06/10 18:30:34;;;;;;;5.95;5.17;;;;;;;18.68;70.35;99587.74;1742614;80;21023;-77